Мюнхен, Германия

31 10, 2014 23:41 CET (GMT +0100)
Emeranbogen | Change Station
CLOSE
Current Station
Личная Метеорологическая Станция
Location: Feldkirchen, BAVARIA
Высота над уровнем моря: 1719 ft
Ближайшие Погодные Станции
Важное Cообщение: Fog Gebietsweise Sichtweite unter 150 Meter.

В.н.у.м. 1719 ft 48.15 °N, 11.74 °E | Updated 1 minute ago

Patches of Fog
Клочки Тумана
48.5 °F
Ощущается Как 48 °F
С
0.0
Ветер переменчевый Ветер от Западный
Gusts 0.0 миль/ч

Сегодня
Высокий -- | Низкий -- °F
--% Вероятн. осадков
Вчера
Высокий -- | Низкий -- °F
Precip. -- дюймов
6:56 AM 4:56 PM
Первая четверть, 59% visible
Давление 30.30 дюймов
Видимость 1.7 милиь
Облачность Немного 300 ft
Облачно 24000 ft
Температура с учетом ветра 48 °F
Точка Росы 43 °F
Влажность воздуха 80%
Дождь 0.00 дюймов
Глубина снега Нет в наличии.
УФ 0.0 из 12
Пыльца Нет в наличии.
Качество воздуха Нет в наличии.
Flu Activity Нет в наличии.
METAR EDDM 312220Z 03003KT 2700 R08L/0650V0900N BCFG BR FEW003 BKN240 06/05 Q1026 BECMG 0900 FG

More Conditions Fewer Conditions

Давление 30.30 дюймов
Видимость 1.7 милиь
Облачность Немного 300 ft
Облачно 24000 ft
Температура с учетом ветра 48 °F
Точка Росы 43 °F
Влажность воздуха 80%
Дождь 0.00 дюймов
Глубина снега Нет в наличии.
УФ 0.0 из 12
Пыльца Нет в наличии.
Качество воздуха Нет в наличии.
Flu Activity Нет в наличии.
METAR EDDM 312220Z 03003KT 2700 R08L/0650V0900N BCFG BR FEW003 BKN240 06/05 Q1026 BECMG 0900 FG

More Conditions Fewer Conditions

10-Day Weather Forecast

Almanac

Астрономические явления

Oct. 31, 2014 Восход Закат
Настоящее время
Гражданские сумерки
Навигационные сумерки
Астрономические сумерки
Луна
Длительность светового времени
Продолжительность Дня
Tomorrow will be .
, % of the Moon is Illuminated

Сегодняшние Экстремальные Показания

Country Highs Country Lows

Community

WunderPhotos

Upload Photos

1,766,770 фотографии загружены!

WunderBlogs® & News

Nearby

Качество воздуха

  Качество воздуха Индекс AQ Загрязнитель
Not available.

Глубина Снега

Station Depth Высота над уровнем моря

Сейсмическая активность

Город Distance Mag. Time & Date
Minimum magnitude displayed is 2.5.

Температура Прибрежных Вод

Место Температура

Ближайшие Погодные Станции